Time;durP1;ratioP1;P1;durP2;ratioP2;P2;SDS_P1;SDS_P2;PMS_P1;PMS_P2;Temp;Humidity;BMP_temperature;BMP_pressure;BME280_temperature;BME280_humidity;BME280_pressure;Samples;Min_cycle;Max_cycle;Signal;HPM_P1;HPM_P2
2021/12/19 00:01:11;;;;;;;0.80;0.80;;;7.60;99.90;;;;;;5032379;28;20199;-68
2021/12/19 00:09:03;;;;;;;1.47;1.37;;;7.70;99.90;;;;;;5012747;28;20450;-68
2021/12/19 00:11:29;;;;;;;1.10;1.00;;;7.70;99.90;;;;;;5012033;28;20887;-68
2021/12/19 00:13:56;;;;;;;2.10;1.03;;;7.70;99.90;;;;;;5023699;28;20446;-68
2021/12/19 00:16:22;;;;;;;2.63;1.63;;;7.70;99.90;;;;;;5031543;28;20446;-68
2021/12/19 00:18:50;;;;;;;3.70;3.17;;;7.70;99.90;;;;;;5022732;28;20434;-68
2021/12/19 00:21:17;;;;;;;0.80;0.70;;;7.70;99.90;;;;;;5012038;28;20466;-68
2021/12/19 00:23:44;;;;;;;4.60;1.10;;;7.70;99.90;;;;;;5012191;28;20514;-68
2021/12/19 00:26:11;;;;;;;0.70;0.60;;;7.70;99.90;;;;;;5011703;28;20499;-67
2021/12/19 00:28:37;;;;;;;4.73;4.43;;;7.60;99.90;;;;;;5012199;28;20411;-68
2021/12/19 00:31:04;;;;;;;1.57;1.27;;;7.60;99.90;;;;;;5014319;28;20506;-68
2021/12/19 00:33:29;;;;;;;0.70;0.70;;;7.60;99.90;;;;;;5046954;28;20448;-68
2021/12/19 00:35:55;;;;;;;1.63;1.53;;;7.60;99.90;;;;;;5029388;28;20853;-68
2021/12/19 00:38:21;;;;;;;13.00;1.50;;;7.60;99.90;;;;;;5031515;28;20199;-68
2021/12/19 00:40:46;;;;;;;5.30;2.77;;;7.50;99.90;;;;;;5031360;28;20234;-67
2021/12/19 00:43:23;;;;;;;2.33;2.23;;;7.50;99.90;;;;;;5028013;28;20186;-68
2021/12/19 00:45:51;;;;;;;1.87;1.67;;;7.60;99.90;;;;;;5011469;28;20168;-68
2021/12/19 00:48:16;;;;;;;2.60;1.13;;;7.50;99.90;;;;;;5011905;28;21138;-68
2021/12/19 00:50:43;;;;;;;1.10;1.00;;;7.50;99.90;;;;;;5011373;28;20426;-68
2021/12/19 00:53:09;;;;;;;1.63;1.53;;;7.60;99.90;;;;;;5029343;28;20754;-68
2021/12/19 00:55:36;;;;;;;1.10;1.10;;;7.50;99.90;;;;;;5032948;28;20426;-68
2021/12/19 00:58:01;;;;;;;1.23;1.00;;;7.50;99.90;;;;;;5033050;28;20504;-67
2021/12/19 01:00:32;;;;;;;0.73;0.73;;;7.50;99.90;;;;;;5032888;28;20532;-68
2021/12/19 01:03:00;;;;;;;3.80;3.60;;;7.60;99.90;;;;;;5021625;28;20258;-68
2021/12/19 01:05:27;;;;;;;1.47;1.37;;;7.60;99.90;;;;;;5013821;28;20441;-68
2021/12/19 01:07:53;;;;;;;0.80;0.80;;;7.60;99.90;;;;;;5016241;28;20411;-68
2021/12/19 01:10:18;;;;;;;4.30;0.93;;;7.70;99.90;;;;;;5015683;28;20984;-68
2021/12/19 01:12:44;;;;;;;0.80;0.80;;;7.60;99.90;;;;;;5015141;28;20207;-68
2021/12/19 01:15:12;;;;;;;1.83;1.73;;;7.60;99.90;;;;;;5014698;28;20180;-68
2021/12/19 01:17:38;;;;;;;0.60;0.50;;;7.60;99.90;;;;;;5014927;28;20172;-68
2021/12/19 01:20:11;;;;;;;0.87;0.87;;;7.60;99.90;;;;;;5014781;28;20458;-67
2021/12/19 01:22:37;;;;;;;2.10;1.10;;;7.60;99.90;;;;;;5023848;28;20525;-68
2021/12/19 01:25:03;;;;;;;2.50;2.40;;;7.60;99.90;;;;;;5024785;28;20507;-67
2021/12/19 01:27:29;;;;;;;0.93;0.67;;;7.60;99.90;;;;;;5032585;28;20202;-67
2021/12/19 01:29:54;;;;;;;2.73;2.63;;;7.60;99.90;;;;;;5033137;28;20418;-68
2021/12/19 01:32:20;;;;;;;0.60;0.50;;;7.60;99.90;;;;;;5023782;28;20226;-68
2021/12/19 01:34:46;;;;;;;1.40;1.30;;;7.60;99.90;;;;;;5015323;28;20184;-67
2021/12/19 01:37:13;;;;;;;0.87;0.87;;;7.60;99.90;;;;;;5029827;28;20415;-69
2021/12/19 01:39:38;;;;;;;0.70;0.70;;;7.50;99.90;;;;;;5015037;28;20161;-67
2021/12/19 01:42:09;;;;;;;1.20;1.07;;;7.50;99.90;;;;;;5026835;28;20838;-68
2021/12/19 01:44:34;;;;;;;0.93;0.70;;;7.60;99.90;;;;;;5034425;28;20171;-68
2021/12/19 01:47:00;;;;;;;3.43;2.83;;;7.60;99.90;;;;;;5030734;28;20774;-67
2021/12/19 01:49:26;;;;;;;0.70;0.60;;;7.60;99.90;;;;;;5014244;28;20537;-68
2021/12/19 01:51:51;;;;;;;0.70;0.53;;;7.60;99.90;;;;;;5014562;28;20200;-68
2021/12/19 01:54:17;;;;;;;0.60;0.50;;;7.50;99.90;;;;;;5014445;28;20181;-69
2021/12/19 01:56:43;;;;;;;0.60;0.50;;;7.50;99.90;;;;;;5014470;28;20673;-69
2021/12/19 01:59:10;;;;;;;0.60;0.60;;;7.50;99.90;;;;;;5034226;28;20263;-67
2021/12/19 02:01:44;;;;;;;2.10;2.00;;;7.50;99.90;;;;;;5033950;28;20257;-68
2021/12/19 02:04:12;;;;;;;0.90;0.90;;;7.50;99.90;;;;;;5033669;28;20432;-69
2021/12/19 02:06:37;;;;;;;0.83;0.83;;;7.50;99.90;;;;;;5034240;28;20414;-68
2021/12/19 02:09:07;;;;;;;1.30;1.20;;;7.50;99.90;;;;;;5051602;28;20904;-67
2021/12/19 02:11:34;;;;;;;0.60;0.50;;;7.50;99.90;;;;;;5035648;28;20191;-68
2021/12/19 02:14:00;;;;;;;0.60;0.50;;;7.50;99.90;;;;;;5032637;28;20425;-68
2021/12/19 02:16:26;;;;;;;1.20;1.13;;;7.50;99.90;;;;;;5033208;28;20900;-69
2021/12/19 02:18:51;;;;;;;0.60;0.60;;;7.50;99.90;;;;;;5033412;28;20433;-68
2021/12/19 02:21:17;;;;;;;0.93;0.90;;;7.50;99.90;;;;;;5033947;28;20552;-68
2021/12/19 02:23:43;;;;;;;0.60;0.50;;;7.60;99.90;;;;;;5029813;28;20557;-68
2021/12/19 02:26:08;;;;;;;4.40;1.60;;;7.50;99.90;;;;;;5013325;28;20213;-68
2021/12/19 02:28:34;;;;;;;1.67;0.77;;;7.50;99.90;;;;;;5013533;28;20172;-68
2021/12/19 02:31:00;;;;;;;0.70;0.70;;;7.40;99.90;;;;;;5027953;28;20880;-67
2021/12/19 02:33:30;;;;;;;2.20;1.63;;;7.50;99.90;;;;;;5033111;28;20338;-69
2021/12/19 02:36:41;;;;;;;0.60;0.50;;;7.50;99.90;;;;;;5032858;28;20178;-68
2021/12/19 02:49:43;;;;;;;1.47;1.37;;;7.30;99.90;;;;;;5029389;28;20436;-68
2021/12/19 02:52:14;;;;;;;1.37;1.27;;;7.40;99.90;;;;;;5033220;28;20422;-68
2021/12/19 02:54:40;;;;;;;0.70;0.63;;;7.30;99.90;;;;;;5031323;28;20207;-68
2021/12/19 02:57:06;;;;;;;3.67;1.50;;;7.30;99.90;;;;;;5030554;28;20817;-67
2021/12/19 02:59:32;;;;;;;2.07;0.83;;;7.30;99.90;;;;;;5013456;28;20174;-68
2021/12/19 03:01:58;;;;;;;0.60;0.50;;;7.40;99.90;;;;;;5013098;28;20703;-68
2021/12/19 03:04:24;;;;;;;1.87;1.77;;;7.40;99.90;;;;;;5013188;28;20407;-68
2021/12/19 03:06:50;;;;;;;4.07;1.27;;;7.40;99.90;;;;;;5013010;28;20191;-68
2021/12/19 03:09:34;;;;;;;1.47;1.37;;;7.40;99.90;;;;;;5012025;28;20424;-67
2021/12/19 03:12:08;;;;;;;2.50;1.37;;;7.40;99.90;;;;;;5012771;28;20521;-68
2021/12/19 03:20:03;;;;;;;0.70;0.60;;;7.40;99.90;;;;;;5012947;28;20761;-68
2021/12/19 03:22:28;;;;;;;1.13;1.03;;;7.50;99.90;;;;;;5020095;28;20442;-68
2021/12/19 03:24:54;;;;;;;1.70;1.47;;;7.40;99.90;;;;;;5033731;28;20422;-67
2021/12/19 03:27:20;;;;;;;0.60;0.50;;;7.50;99.90;;;;;;5032430;28;20268;-69
2021/12/19 03:29:45;;;;;;;1.07;0.97;;;7.50;99.90;;;;;;5031009;28;20558;-67
2021/12/19 03:32:11;;;;;;;0.93;0.93;;;7.50;99.90;;;;;;5047103;28;20198;-69
2021/12/19 03:34:36;;;;;;;1.47;1.00;;;7.50;99.90;;;;;;5031873;28;20186;-68
2021/12/19 03:37:02;;;;;;;0.70;0.60;;;7.60;99.90;;;;;;5047185;28;20179;-68
2021/12/19 03:39:37;;;;;;;0.70;0.60;;;7.60;99.90;;;;;;5046235;28;20199;-68
2021/12/19 03:42:04;;;;;;;0.80;0.80;;;7.60;99.90;;;;;;5033198;28;21025;-68
2021/12/19 03:44:30;;;;;;;0.70;0.50;;;7.60;99.90;;;;;;5033733;28;20518;-68
2021/12/19 03:46:55;;;;;;;0.60;0.50;;;7.60;99.90;;;;;;5026300;28;20856;-68
2021/12/19 03:49:21;;;;;;;0.70;0.60;;;7.50;99.90;;;;;;5012265;28;20171;-68
2021/12/19 03:51:48;;;;;;;1.07;0.97;;;7.50;99.90;;;;;;5012146;28;20275;-68
2021/12/19 03:54:14;;;;;;;1.00;1.00;;;7.50;99.90;;;;;;5012157;28;20172;-68
2021/12/19 03:56:39;;;;;;;0.60;0.50;;;7.50;99.90;;;;;;5023702;28;20955;-69
2021/12/19 03:59:05;;;;;;;0.70;0.70;;;7.50;99.90;;;;;;5030324;28;20445;-67
2021/12/19 04:01:30;;;;;;;0.80;0.70;;;7.50;99.90;;;;;;5023269;28;20211;-67
2021/12/19 04:03:58;;;;;;;0.80;0.80;;;7.50;99.90;;;;;;5012188;28;20172;-68
2021/12/19 04:06:23;;;;;;;0.70;0.70;;;7.50;99.90;;;;;;5011927;28;20168;-67
2021/12/19 04:08:50;;;;;;;1.00;1.00;;;7.50;99.90;;;;;;5012489;28;20502;-68
2021/12/19 04:11:16;;;;;;;0.90;0.70;;;7.60;99.90;;;;;;5027435;28;20572;-69
2021/12/19 04:13:41;;;;;;;0.90;0.80;;;7.70;99.90;;;;;;5011934;28;20438;-68
2021/12/19 04:16:07;;;;;;;0.60;0.50;;;7.70;99.90;;;;;;5023317;28;20180;-68
2021/12/19 04:18:32;;;;;;;0.90;0.77;;;7.70;99.90;;;;;;5033271;28;20176;-68
2021/12/19 04:20:58;;;;;;;1.00;1.00;;;7.60;99.90;;;;;;5033578;28;20202;-68
2021/12/19 04:23:24;;;;;;;0.70;0.60;;;7.60;99.90;;;;;;5035076;28;20626;-68
2021/12/19 04:25:51;;;;;;;0.60;0.50;;;7.60;99.90;;;;;;5034026;28;20168;-68
2021/12/19 04:28:17;;;;;;;0.60;0.50;;;7.60;99.90;;;;;;5034158;28;20168;-68
2021/12/19 04:30:42;;;;;;;1.27;1.17;;;7.60;99.90;;;;;;5024343;28;20453;-68
2021/12/19 04:33:11;;;;;;;0.60;0.50;;;7.60;99.90;;;;;;5033367;28;20192;-68
2021/12/19 04:35:39;;;;;;;2.80;2.53;;;7.60;99.90;;;;;;5034027;28;20172;-68
2021/12/19 04:54:56;;;;;;;1.00;0.90;;;7.60;99.90;;;;;;5017850;28;20798;-68
2021/12/19 04:57:10;;;;;;;0.90;0.90;;;7.60;99.90;;;;;;5030157;28;20999;-68
2021/12/19 04:59:53;;;;;;;1.83;0.90;;;7.60;99.90;;;;;;5017700;28;20494;-68
2021/12/19 05:16:02;;;;;;;1.00;1.00;;;7.60;99.90;;;;;;5035271;28;20548;-68
2021/12/19 05:18:31;;;;;;;1.40;1.03;;;7.50;99.90;;;;;;5035484;28;20410;-68
2021/12/19 05:21:01;;;;;;;0.70;0.60;;;7.50;99.90;;;;;;5018456;28;20462;-68
2021/12/19 05:25:56;;;;;;;2.50;2.30;;;7.60;99.90;;;;;;5014626;28;20506;-68
2021/12/19 05:28:21;;;;;;;1.33;0.90;;;7.60;99.90;;;;;;5014709;28;20495;-68
2021/12/19 05:30:47;;;;;;;0.80;0.80;;;7.60;99.90;;;;;;5022668;28;20179;-68
2021/12/19 05:33:12;;;;;;;1.53;0.80;;;7.60;99.90;;;;;;5032093;28;20200;-68
2021/12/19 05:46:26;;;;;;;0.70;0.70;;;7.50;99.90;;;;;;5014655;28;20402;-68
2021/12/19 05:48:53;;;;;;;1.67;0.90;;;7.50;99.90;;;;;;5029742;28;20938;-69
2021/12/19 05:51:19;;;;;;;1.17;1.17;;;7.50;99.90;;;;;;5014838;28;20604;-68
2021/12/19 05:53:44;;;;;;;0.90;0.90;;;7.50;99.90;;;;;;5018798;28;20462;-67
2021/12/19 05:56:10;;;;;;;0.60;0.60;;;7.50;99.90;;;;;;5015698;28;20542;-68
2021/12/19 05:58:35;;;;;;;0.60;0.50;;;7.50;99.90;;;;;;5021457;28;20183;-68
2021/12/19 06:01:01;;;;;;;0.60;0.50;;;7.60;99.90;;;;;;5033183;28;20199;-67
2021/12/19 06:03:26;;;;;;;0.60;0.50;;;7.60;99.90;;;;;;5035361;28;20187;-68
2021/12/19 06:05:52;;;;;;;0.70;0.60;;;7.50;99.90;;;;;;5034103;28;20172;-68
2021/12/19 06:08:18;;;;;;;0.60;0.50;;;7.50;99.90;;;;;;5025174;28;20187;-67
2021/12/19 06:10:44;;;;;;;0.70;0.70;;;7.50;99.90;;;;;;5035949;28;20422;-68
2021/12/19 06:13:09;;;;;;;0.60;0.50;;;7.60;99.90;;;;;;5050763;28;20286;-68
2021/12/19 06:15:36;;;;;;;0.70;0.70;;;7.50;99.90;;;;;;5035616;28;20184;-67
2021/12/19 06:18:02;;;;;;;0.70;0.50;;;7.50;99.90;;;;;;5035179;28;20179;-68
2021/12/19 06:20:28;;;;;;;0.60;0.60;;;7.60;99.90;;;;;;5035343;28;20450;-68
2021/12/19 06:22:54;;;;;;;0.80;0.70;;;7.50;99.90;;;;;;5034873;28;20445;-67
2021/12/19 06:25:20;;;;;;;0.60;0.50;;;7.40;99.90;;;;;;5035290;28;20170;-68
2021/12/19 06:27:46;;;;;;;0.60;0.50;;;7.50;99.90;;;;;;5017219;28;20187;-68
2021/12/19 06:30:12;;;;;;;2.30;1.53;;;7.50;99.90;;;;;;5016644;28;20438;-68
2021/12/19 06:32:38;;;;;;;0.60;0.57;;;7.50;99.90;;;;;;5035258;28;20426;-67
2021/12/19 06:35:08;;;;;;;0.70;0.50;;;7.50;99.90;;;;;;5035248;28;20254;-68
2021/12/19 06:37:38;;;;;;;0.63;0.50;;;7.50;99.90;;;;;;5030306;28;20521;-67
2021/12/19 06:40:09;;;;;;;0.60;0.50;;;7.50;99.90;;;;;;5050253;28;20414;-68
2021/12/19 06:42:34;;;;;;;1.33;1.27;;;7.50;99.90;;;;;;5022352;28;20501;-68
2021/12/19 06:45:00;;;;;;;0.70;0.53;;;7.50;99.90;;;;;;5015386;28;20415;-68
2021/12/19 06:47:26;;;;;;;1.27;1.27;;;7.50;99.90;;;;;;5014485;28;20184;-68
2021/12/19 06:49:52;;;;;;;3.10;3.00;;;7.50;99.90;;;;;;5018499;28;20429;-68
2021/12/19 06:52:17;;;;;;;0.60;0.50;;;7.50;99.90;;;;;;5035444;28;20258;-67
2021/12/19 06:54:43;;;;;;;0.70;0.60;;;7.50;99.90;;;;;;5022195;28;20254;-68
2021/12/19 06:57:08;;;;;;;0.60;0.60;;;7.60;99.90;;;;;;5015083;28;20176;-67
2021/12/19 06:59:34;;;;;;;0.60;0.50;;;7.50;99.90;;;;;;5014852;28;20172;-68
2021/12/19 07:01:59;;;;;;;0.60;0.50;;;7.50;99.90;;;;;;5013156;28;20204;-68
2021/12/19 07:04:25;;;;;;;0.60;0.50;;;7.50;99.90;;;;;;5020012;28;20229;-67
2021/12/19 07:06:50;;;;;;;0.60;0.50;;;7.50;99.90;;;;;;5049148;28;20175;-68
2021/12/19 07:09:16;;;;;;;3.33;1.00;;;7.50;99.90;;;;;;5034809;28;20167;-68
2021/12/19 07:11:43;;;;;;;1.43;0.80;;;7.60;99.90;;;;;;5034474;28;20631;-68
2021/12/19 07:14:08;;;;;;;1.53;1.43;;;7.60;99.90;;;;;;5034598;28;20194;-67
2021/12/19 07:16:34;;;;;;;7.30;1.17;;;7.50;99.90;;;;;;5033129;28;20410;-68
2021/12/19 07:18:59;;;;;;;0.60;0.60;;;7.50;99.90;;;;;;5022855;28;20183;-68
2021/12/19 07:21:25;;;;;;;0.67;0.60;;;7.60;99.90;;;;;;5029821;28;20227;-67
2021/12/19 07:23:51;;;;;;;1.97;1.73;;;7.60;99.90;;;;;;5015055;28;20191;-68
2021/12/19 07:26:17;;;;;;;2.20;0.80;;;7.60;99.90;;;;;;5014767;28;20626;-68
2021/12/19 07:28:45;;;;;;;0.87;0.87;;;7.60;99.90;;;;;;5014586;28;20435;-68
2021/12/19 07:31:11;;;;;;;0.83;0.83;;;7.60;99.90;;;;;;5033960;28;20524;-68
2021/12/19 07:33:37;;;;;;;1.50;1.40;;;7.60;99.90;;;;;;5032605;28;20934;-68
2021/12/19 07:36:03;;;;;;;0.60;0.50;;;7.60;99.90;;;;;;5033755;28;20175;-67
2021/12/19 07:38:34;;;;;;;1.37;0.90;;;7.60;99.90;;;;;;5049655;28;20179;-68
2021/12/19 07:41:02;;;;;;;0.60;0.50;;;7.60;99.90;;;;;;5033185;28;20477;-67
2021/12/19 07:43:28;;;;;;;1.27;1.17;;;7.60;99.90;;;;;;5033091;28;20434;-67
2021/12/19 07:45:55;;;;;;;0.80;0.80;;;7.60;99.90;;;;;;5033013;28;20424;-68
2021/12/19 07:48:20;;;;;;;0.70;0.70;;;7.60;99.90;;;;;;5034240;28;20418;-67
2021/12/19 07:50:46;;;;;;;2.20;1.43;;;7.60;99.90;;;;;;5034234;28;20406;-67
2021/12/19 07:53:12;;;;;;;0.70;0.67;;;7.60;99.90;;;;;;5034032;28;20183;-67
2021/12/19 07:55:38;;;;;;;1.43;1.33;;;7.60;99.90;;;;;;5049301;28;20187;-68
2021/12/19 07:58:04;;;;;;;1.13;1.13;;;7.50;99.90;;;;;;5048185;28;20175;-68
2021/12/19 08:00:29;;;;;;;0.70;0.60;;;7.50;99.90;;;;;;5026692;28;20526;-67
2021/12/19 08:02:55;;;;;;;0.70;0.70;;;7.40;99.90;;;;;;5029392;28;20474;-68
2021/12/19 08:05:21;;;;;;;0.60;0.50;;;7.40;99.90;;;;;;5029212;28;20206;-68
2021/12/19 08:07:48;;;;;;;1.63;0.93;;;7.30;99.90;;;;;;5014311;28;20165;-68
2021/12/19 08:11:39;;;;;;;3.33;3.13;;;7.40;99.90;;;;;;5029638;28;20422;-67
2021/12/19 08:13:02;;;;;;;0.60;0.50;;;7.30;99.90;;;;;;5015433;28;20431;-68
2021/12/19 08:15:27;;;;;;;0.60;0.50;;;7.40;99.90;;;;;;5030292;28;20513;-68
2021/12/19 08:17:53;;;;;;;0.60;0.50;;;7.30;99.90;;;;;;5038180;28;20521;-68
2021/12/19 08:20:19;;;;;;;0.60;0.50;;;7.40;99.90;;;;;;5036868;28;20212;-68
2021/12/19 08:22:46;;;;;;;2.93;0.97;;;7.40;99.90;;;;;;5037327;28;20183;-68
2021/12/19 08:25:12;;;;;;;0.90;0.90;;;7.40;99.90;;;;;;5052140;28;20305;-67
2021/12/19 08:27:37;;;;;;;0.60;0.50;;;7.40;99.90;;;;;;5029585;28;20447;-68
2021/12/19 08:30:07;;;;;;;0.60;0.50;;;7.40;99.90;;;;;;5034625;28;20167;-67
2021/12/19 08:32:33;;;;;;;0.60;0.50;;;7.40;99.90;;;;;;5037610;28;20188;-67
2021/12/19 08:34:58;;;;;;;1.00;1.00;;;7.50;99.90;;;;;;5025848;28;20433;-67
2021/12/19 08:37:24;;;;;;;1.00;0.90;;;7.50;99.90;;;;;;5030643;28;20237;-67
2021/12/19 08:39:50;;;;;;;0.60;0.50;;;7.50;99.90;;;;;;5036199;28;20217;-68
2021/12/19 08:42:15;;;;;;;0.60;0.50;;;7.50;99.90;;;;;;5036690;28;20246;-67
2021/12/19 08:44:42;;;;;;;0.60;0.50;;;7.50;99.90;;;;;;5027240;28;20596;-67
2021/12/19 08:47:08;;;;;;;0.70;0.50;;;7.60;99.90;;;;;;5016876;28;20577;-68
2021/12/19 08:49:34;;;;;;;0.67;0.53;;;7.60;99.90;;;;;;5017190;28;20407;-68
2021/12/19 08:52:01;;;;;;;0.60;0.50;;;7.70;99.90;;;;;;5025044;28;20441;-67
2021/12/19 08:54:27;;;;;;;0.67;0.50;;;7.80;99.90;;;;;;5036462;28;20919;-68
2021/12/19 08:56:52;;;;;;;0.60;0.50;;;7.80;99.90;;;;;;5037003;28;20409;-67
2021/12/19 08:59:18;;;;;;;0.60;0.50;;;7.90;99.90;;;;;;5036078;28;20414;-67
2021/12/19 09:01:43;;;;;;;1.13;1.03;;;8.00;99.90;;;;;;5032165;28;20214;-68
2021/12/19 09:04:09;;;;;;;0.70;0.50;;;8.10;99.90;;;;;;5044414;28;20201;-68
2021/12/19 09:06:35;;;;;;;2.50;1.10;;;8.10;99.90;;;;;;5042306;28;20310;-68
2021/12/19 09:09:04;;;;;;;0.60;0.50;;;8.00;99.90;;;;;;5025978;28;20582;-68
2021/12/19 09:11:29;;;;;;;0.90;0.90;;;8.10;99.90;;;;;;5016060;28;20498;-68
2021/12/19 09:13:55;;;;;;;2.77;2.67;;;7.90;99.90;;;;;;5014658;28;20514;-68
2021/12/19 09:16:21;;;;;;;0.60;0.53;;;8.00;99.90;;;;;;5015517;28;20200;-68
2021/12/19 09:18:46;;;;;;;1.00;1.00;;;8.00;99.90;;;;;;5017325;28;20251;-68
2021/12/19 09:21:12;;;;;;;2.10;1.67;;;8.00;99.90;;;;;;5031912;28;20200;-68
2021/12/19 09:23:37;;;;;;;0.70;0.50;;;8.00;99.90;;;;;;5035354;28;20183;-68
2021/12/19 09:26:05;;;;;;;1.10;0.70;;;8.00;99.90;;;;;;5035393;28;20163;-68
2021/12/19 09:28:30;;;;;;;0.73;0.73;;;8.00;99.90;;;;;;5035740;28;20160;-68
2021/12/19 09:30:56;;;;;;;0.60;0.50;;;8.10;99.90;;;;;;5040502;28;20769;-68
2021/12/19 09:33:22;;;;;;;0.70;0.70;;;8.10;99.90;;;;;;5034294;28;20199;-68
2021/12/19 09:35:47;;;;;;;2.20;0.90;;;8.20;99.90;;;;;;5034991;28;20170;-68
2021/12/19 09:38:14;;;;;;;0.70;0.50;;;8.30;99.90;;;;;;5047619;28;20226;-68
2021/12/19 09:40:42;;;;;;;0.70;0.60;;;8.30;99.90;;;;;;5015460;28;20194;-68
2021/12/19 09:43:31;;;;;;;0.60;0.50;;;8.20;99.90;;;;;;5017559;28;20439;-68
2021/12/19 09:45:59;;;;;;;1.23;1.13;;;8.30;99.90;;;;;;5034857;28;20454;-68
2021/12/19 09:48:28;;;;;;;1.00;0.87;;;8.20;99.90;;;;;;5035340;28;20398;-68
2021/12/19 09:50:55;;;;;;;0.80;0.80;;;8.20;99.90;;;;;;5035455;28;20402;-68
2021/12/19 09:53:20;;;;;;;0.70;0.70;;;8.20;99.90;;;;;;5035364;28;20871;-68
2021/12/19 09:55:46;;;;;;;1.03;1.03;;;8.30;99.90;;;;;;5032179;28;20517;-68
2021/12/19 09:58:12;;;;;;;0.97;0.97;;;8.30;99.90;;;;;;5034798;28;20267;-68
2021/12/19 10:00:37;;;;;;;1.03;0.87;;;8.30;99.90;;;;;;5034768;28;20810;-68
2021/12/19 10:03:03;;;;;;;0.70;0.63;;;8.20;99.90;;;;;;5024770;28;20586;-68
2021/12/19 10:05:29;;;;;;;0.63;0.50;;;8.30;99.90;;;;;;5029496;28;20210;-68
2021/12/19 10:07:57;;;;;;;0.70;0.60;;;8.30;99.90;;;;;;5024051;28;20172;-68
2021/12/19 10:10:57;;;;;;;0.70;0.60;;;8.30;99.90;;;;;;5019596;28;20242;-68
2021/12/19 10:13:34;;;;;;;0.70;0.50;;;8.40;99.90;;;;;;5014498;28;20434;-68
2021/12/19 10:16:01;;;;;;;0.70;0.50;;;8.50;99.90;;;;;;5029486;28;20904;-68
2021/12/19 10:18:26;;;;;;;0.70;0.50;;;8.40;99.90;;;;;;5014221;28;20414;-68
2021/12/19 10:20:57;;;;;;;1.80;1.70;;;8.50;99.90;;;;;;5015041;28;20819;-68
2021/12/19 10:23:32;;;;;;;0.70;0.50;;;8.40;99.90;;;;;;5018291;28;20207;-68
2021/12/19 10:26:09;;;;;;;0.70;0.50;;;8.40;99.90;;;;;;5031605;28;20429;-68
2021/12/19 10:28:56;;;;;;;0.70;0.50;;;8.40;99.90;;;;;;5029684;28;20411;-68
2021/12/19 10:31:25;;;;;;;0.63;0.50;;;8.40;99.90;;;;;;5022540;28;20468;-68
2021/12/19 10:33:51;;;;;;;0.97;0.97;;;8.40;99.90;;;;;;5032587;28;20410;-68
2021/12/19 10:36:19;;;;;;;0.60;0.50;;;8.40;99.90;;;;;;5018221;28;20782;-68
2021/12/19 10:38:51;;;;;;;0.80;0.70;;;8.40;99.90;;;;;;5014438;28;20403;-68
2021/12/19 10:41:21;;;;;;;0.70;0.67;;;8.40;99.90;;;;;;5014654;28;20489;-68
2021/12/19 10:44:07;;;;;;;0.70;0.50;;;8.40;99.90;;;;;;5014258;28;20804;-68
2021/12/19 10:46:37;;;;;;;2.80;0.73;;;8.40;99.90;;;;;;5019570;28;20430;-68
2021/12/19 10:49:03;;;;;;;0.63;0.50;;;8.40;99.90;;;;;;5027614;28;20454;-68
2021/12/19 10:51:33;;;;;;;0.70;0.60;;;8.30;99.90;;;;;;5033754;28;20407;-68
2021/12/19 10:54:03;;;;;;;0.70;0.50;;;8.30;99.90;;;;;;5031161;28;20446;-68
2021/12/19 10:56:37;;;;;;;0.70;0.60;;;8.30;99.90;;;;;;5090445;28;20517;-67
2021/12/19 10:59:14;;;;;;;0.60;0.50;;;8.40;99.90;;;;;;5090365;28;20419;-68
2021/12/19 11:01:44;;;;;;;0.70;0.50;;;8.30;99.90;;;;;;5083947;28;20473;-68
2021/12/19 11:04:17;;;;;;;1.23;1.10;;;8.40;99.90;;;;;;5070054;28;20435;-67
2021/12/19 11:06:54;;;;;;;1.17;1.07;;;8.40;99.90;;;;;;5070492;28;20397;-67
2021/12/19 11:09:22;;;;;;;0.70;0.60;;;8.40;99.90;;;;;;5068791;28;20416;-67
2021/12/19 11:12:03;;;;;;;0.70;0.50;;;8.40;99.90;;;;;;5068518;28;20441;-68
2021/12/19 11:14:28;;;;;;;0.70;0.50;;;8.40;99.90;;;;;;5068667;28;20517;-67
2021/12/19 11:17:26;;;;;;;0.70;0.50;;;8.40;99.90;;;;;;5069777;28;20424;-68
2021/12/19 11:19:56;;;;;;;0.70;0.60;;;8.40;99.90;;;;;;5067979;28;20189;-68
2021/12/19 11:22:25;;;;;;;0.63;0.50;;;8.40;99.90;;;;;;5069912;28;20832;-68
2021/12/19 11:24:59;;;;;;;0.70;0.50;;;8.40;99.90;;;;;;5067692;28;20530;-68
2021/12/19 11:27:25;;;;;;;0.60;0.50;;;8.40;99.90;;;;;;5058022;28;20511;-68
2021/12/19 11:29:56;;;;;;;0.70;0.60;;;8.40;99.90;;;;;;5068977;28;20424;-68
2021/12/19 11:32:40;;;;;;;0.70;0.50;;;8.50;99.90;;;;;;5068780;28;20425;-68
2021/12/19 11:35:18;;;;;;;0.70;0.50;;;8.50;99.90;;;;;;5069255;28;20538;-68
2021/12/19 11:37:55;;;;;;;0.70;0.70;;;8.60;99.90;;;;;;5070021;28;20446;-68
2021/12/19 11:40:21;;;;;;;0.60;0.50;;;8.60;99.90;;;;;;5085504;28;20972;-68
2021/12/19 11:42:47;;;;;;;0.67;0.50;;;8.60;99.90;;;;;;5068270;28;20441;-68
2021/12/19 11:45:28;;;;;;;0.67;0.50;;;8.60;99.90;;;;;;5069438;28;20834;-68
2021/12/19 11:48:22;;;;;;;1.53;1.43;;;8.50;99.90;;;;;;5068185;28;20424;-68
2021/12/19 11:50:53;;;;;;;0.70;0.50;;;8.60;99.90;;;;;;5050624;28;20464;-67
2021/12/19 11:53:20;;;;;;;1.90;0.80;;;8.50;99.90;;;;;;5082733;28;20630;-68
2021/12/19 11:55:50;;;;;;;0.70;0.50;;;8.50;99.90;;;;;;5067605;28;20463;-68
2021/12/19 11:58:22;;;;;;;0.70;0.50;;;8.60;99.90;;;;;;5068227;28;20592;-68
2021/12/19 12:00:50;;;;;;;0.67;0.50;;;8.50;99.90;;;;;;5069619;28;20492;-68
2021/12/19 12:03:16;;;;;;;0.70;0.50;;;8.50;99.90;;;;;;5068084;28;20515;-68
2021/12/19 12:05:50;;;;;;;0.70;0.50;;;8.50;99.90;;;;;;5068517;28;20405;-68
2021/12/19 12:08:17;;;;;;;0.70;0.57;;;8.50;99.90;;;;;;5054105;28;20425;-68
2021/12/19 12:10:52;;;;;;;0.70;0.60;;;8.50;99.90;;;;;;5054480;28;20440;-68
2021/12/19 12:13:34;;;;;;;0.70;0.50;;;8.50;99.90;;;;;;5050579;28;20441;-68
2021/12/19 12:16:34;;;;;;;0.80;0.70;;;8.50;99.90;;;;;;5047693;28;20465;-68
2021/12/19 12:19:03;;;;;;;1.10;1.00;;;8.50;99.90;;;;;;5040384;28;20521;-69
2021/12/19 12:21:41;;;;;;;0.70;0.50;;;8.40;99.90;;;;;;5051635;28;20470;-68
2021/12/19 12:24:12;;;;;;;0.70;0.50;;;8.50;99.90;;;;;;5051707;28;20425;-68
2021/12/19 12:26:51;;;;;;;0.70;0.50;;;8.60;99.90;;;;;;5051041;28;20426;-68
2021/12/19 12:29:17;;;;;;;0.70;0.57;;;8.60;99.90;;;;;;5055159;28;20402;-68
2021/12/19 12:31:46;;;;;;;0.63;0.50;;;8.50;99.90;;;;;;5054765;28;20786;-68
2021/12/19 12:34:15;;;;;;;0.87;0.77;;;8.70;99.90;;;;;;5053763;28;20170;-69
2021/12/19 12:36:42;;;;;;;0.70;0.60;;;8.70;99.90;;;;;;5062994;28;20806;-68
2021/12/19 12:39:15;;;;;;;0.70;0.50;;;8.60;99.90;;;;;;5035655;28;20434;-68
2021/12/19 12:44:20;;;;;;;1.53;1.43;;;8.60;99.90;;;;;;5054910;28;20433;-68
2021/12/19 12:46:46;;;;;;;0.70;0.50;;;8.60;99.90;;;;;;5054243;28;20421;-68
2021/12/19 12:49:22;;;;;;;0.70;0.50;;;8.60;99.90;;;;;;5054662;28;20837;-69
2021/12/19 12:51:56;;;;;;;0.70;0.50;;;8.60;99.90;;;;;;5054857;28;20432;-68
2021/12/19 12:54:32;;;;;;;0.93;0.70;;;8.50;99.90;;;;;;5052869;28;20998;-68
2021/12/19 12:57:00;;;;;;;0.70;0.50;;;8.50;99.90;;;;;;5052401;28;20498;-68
2021/12/19 12:59:31;;;;;;;2.70;1.80;;;8.40;99.90;;;;;;5054327;28;20417;-68
2021/12/19 13:02:09;;;;;;;0.80;0.60;;;8.40;99.90;;;;;;5054647;28;20431;-68
2021/12/19 13:04:36;;;;;;;0.70;0.40;;;8.40;99.90;;;;;;5054582;28;20531;-68
2021/12/19 13:07:10;;;;;;;0.67;0.50;;;8.40;99.90;;;;;;5068764;28;20848;-68
2021/12/19 13:09:41;;;;;;;0.70;0.50;;;8.40;99.90;;;;;;5053167;28;20410;-68
2021/12/19 13:12:25;;;;;;;0.70;0.50;;;8.30;99.90;;;;;;5052903;28;20436;-68
2021/12/19 13:14:56;;;;;;;1.23;0.73;;;8.30;99.90;;;;;;5052902;28;20441;-68
2021/12/19 13:17:42;;;;;;;0.70;0.50;;;8.30;99.90;;;;;;5052198;28;20429;-68
2021/12/19 13:20:25;;;;;;;0.70;0.50;;;8.20;99.90;;;;;;5048675;28;20496;-69
2021/12/19 13:22:57;;;;;;;0.70;0.60;;;8.10;99.90;;;;;;5036543;28;20479;-68
2021/12/19 13:25:38;;;;;;;0.70;0.50;;;8.10;99.90;;;;;;5044732;28;20426;-68
2021/12/19 13:28:05;;;;;;;0.70;0.60;;;8.20;99.90;;;;;;5064889;28;20413;-69
2021/12/19 13:30:36;;;;;;;0.70;0.50;;;8.20;99.90;;;;;;5053214;28;20519;-69
2021/12/19 13:33:07;;;;;;;0.80;0.80;;;8.20;99.90;;;;;;5052559;28;21135;-68
2021/12/19 13:35:37;;;;;;;0.80;0.80;;;8.20;99.90;;;;;;5052417;28;20445;-68
2021/12/19 13:38:09;;;;;;;0.70;0.50;;;8.20;99.90;;;;;;5052735;28;20484;-68
2021/12/19 13:40:41;;;;;;;0.70;0.63;;;8.20;99.90;;;;;;5052341;28;20413;-70
2021/12/19 13:43:09;;;;;;;3.60;0.70;;;8.20;99.90;;;;;;5052415;28;20444;-69
2021/12/19 13:46:05;;;;;;;1.07;1.07;;;8.20;99.90;;;;;;5052784;28;20410;-69
2021/12/19 13:48:37;;;;;;;7.60;1.83;;;8.20;99.90;;;;;;5050531;28;20449;-68
2021/12/19 13:51:07;;;;;;;1.40;1.30;;;8.20;99.90;;;;;;5052340;28;20896;-68
2021/12/19 13:53:37;;;;;;;0.70;0.70;;;8.20;99.90;;;;;;5051575;28;20445;-68
2021/12/19 13:56:12;;;;;;;0.70;0.60;;;8.20;99.90;;;;;;5052056;28;20485;-68
2021/12/19 13:58:43;;;;;;;0.70;0.50;;;8.20;99.90;;;;;;5052506;28;20417;-68
2021/12/19 14:01:22;;;;;;;0.70;0.50;;;8.10;99.90;;;;;;5052364;28;20425;-68
2021/12/19 14:03:51;;;;;;;0.70;0.50;;;8.20;99.90;;;;;;5052439;28;20926;-68
2021/12/19 14:06:31;;;;;;;0.60;0.50;;;8.20;99.90;;;;;;5051993;28;20409;-68
2021/12/19 14:09:18;;;;;;;0.70;0.50;;;8.10;99.90;;;;;;5049177;28;20779;-69
2021/12/19 14:11:50;;;;;;;0.70;0.50;;;8.10;99.90;;;;;;5038624;28;20440;-68
2021/12/19 14:14:38;;;;;;;0.70;0.60;;;8.00;99.90;;;;;;5050890;28;20802;-68